createdAt,value
2022-11-16T00:01:47.989Z,99634.91
2022-11-16T00:04:15.321Z,99635.13
2022-11-16T00:06:42.551Z,99630.84
2022-11-16T00:09:24.893Z,99621.31
2022-11-16T00:12:02.270Z,99619.28
2022-11-16T00:14:35.015Z,99623.09
2022-11-16T00:17:04.051Z,99632.63
2022-11-16T00:19:31.618Z,99635.34
2022-11-16T00:22:00.110Z,99625.84
2022-11-16T00:24:27.371Z,99625.84
2022-11-16T00:26:56.164Z,99625.22
2022-11-16T00:29:27.284Z,99635.56
2022-11-16T00:31:55.536Z,99641.69
2022-11-16T00:34:23.967Z,99641.69
2022-11-16T00:36:51.656Z,99645.13
2022-11-16T00:39:19.893Z,99639.06
2022-11-16T00:41:48.845Z,99639.06
2022-11-16T00:44:16.476Z,99635.47
2022-11-16T00:46:43.752Z,99638.09
2022-11-16T00:49:11.558Z,99632.84
2022-11-16T00:51:38.800Z,99646.06
2022-11-16T00:54:08.956Z,99646.06
2022-11-16T00:56:37.986Z,99648.69
2022-11-16T00:59:06.899Z,99652.28
2022-11-16T01:01:34.659Z,99640.00
2022-11-16T01:04:02.105Z,99618.44
2022-11-16T01:06:29.325Z,99628.91
2022-11-16T01:08:56.681Z,99612.09
2022-11-16T01:11:50.405Z,99611.44
2022-11-16T01:14:18.366Z,99613.09
2022-11-16T01:16:49.548Z,99603.78
2022-11-16T01:19:16.721Z,99597.13
2022-11-16T01:21:43.916Z,99600.81
2022-11-16T01:24:11.316Z,99593.78
2022-11-16T01:26:38.688Z,99601.63
2022-11-16T01:29:06.607Z,99608.91
2022-11-16T01:31:38.623Z,99616.75
2022-11-16T01:34:05.882Z,99615.94
2022-11-16T01:36:33.257Z,99612.34
2022-11-16T01:39:05.002Z,99600.22
2022-11-16T01:41:44.314Z,99591.38
2022-11-16T01:44:33.303Z,99582.69
2022-11-16T01:47:17.468Z,99588.16
2022-11-16T01:49:56.010Z,99595.91
2022-11-16T01:52:35.981Z,99587.22
2022-11-16T01:55:04.423Z,99587.22
2022-11-16T01:57:47.495Z,99576.75
2022-11-16T02:00:17.115Z,99587.22
2022-11-16T02:02:54.432Z,99584.59
2022-11-16T02:06:20.084Z,99581.00
2022-11-16T02:09:38.531Z,99576.63
2022-11-16T02:13:07.473Z,99572.31
2022-11-16T02:16:07.993Z,99570.41
2022-11-16T02:19:22.732Z,99566.16
2022-11-16T02:22:27.362Z,99566.84
2022-11-16T02:25:22.718Z,99558.16
2022-11-16T02:28:25.437Z,99560.56
2022-11-16T02:30:57.810Z,99562.09
2022-11-16T02:33:36.923Z,99561.16
2022-11-16T02:36:13.811Z,99562.72
2022-11-16T02:38:51.627Z,99565.34
2022-11-16T02:41:25.307Z,99568.56
2022-11-16T02:44:13.882Z,99563.31
2022-11-16T02:46:48.631Z,99568.44
2022-11-16T02:49:19.584Z,99562.59
2022-11-16T02:51:48.008Z,99579.16
2022-11-16T02:54:20.440Z,99567.84
2022-11-16T02:57:03.584Z,99566.88
2022-11-16T02:59:41.964Z,99579.88
2022-11-16T03:02:50.422Z,99576.41
2022-11-16T03:05:32.041Z,99579.88
2022-11-16T03:08:16.999Z,99571.19
2022-11-16T03:11:12.416Z,99574.63
2022-11-16T03:13:41.962Z,99575.59
2022-11-16T03:16:38.496Z,99582.59
2022-11-16T03:19:13.066Z,99590.47
2022-11-16T03:22:00.414Z,99576.75
2022-11-16T03:24:27.977Z,99576.88
2022-11-16T03:27:13.225Z,99573.56
2022-11-16T03:30:05.944Z,99577.00
2022-11-16T03:33:02.482Z,99582.25
2022-11-16T03:35:56.689Z,99575.53
2022-11-16T03:38:27.879Z,99571.28
2022-11-16T03:41:06.458Z,99565.28
2022-11-16T03:43:36.423Z,99581.97
2022-11-16T03:46:05.742Z,99593.50
2022-11-16T03:48:39.939Z,99586.72
2022-11-16T03:51:14.201Z,99589.56
2022-11-16T03:53:42.852Z,99583.72
2022-11-16T03:56:11.471Z,99593.47
2022-11-16T03:58:39.525Z,99591.91
2022-11-16T04:01:06.927Z,99594.66
2022-11-16T04:03:34.270Z,99604.41
2022-11-16T04:06:20.086Z,99605.47
2022-11-16T04:09:06.042Z,99624.00
2022-11-16T04:11:54.703Z,99625.91
2022-11-16T04:14:44.905Z,99623.53
2022-11-16T04:17:36.314Z,99619.34
2022-11-16T04:20:24.291Z,99615.19
2022-11-16T04:23:33.686Z,99614.72
2022-11-16T04:26:06.334Z,99618.53
2022-11-16T04:28:35.891Z,99621.25
2022-11-16T04:31:25.156Z,99626.84
2022-11-16T04:34:19.513Z,99619.41
2022-11-16T04:37:09.802Z,99617.94
2022-11-16T04:39:37.020Z,99615.66
2022-11-16T04:42:17.314Z,99622.16
2022-11-16T04:45:05.487Z,99636.41
2022-11-16T04:47:45.396Z,99634.84
2022-11-16T04:50:12.676Z,99641.97
2022-11-16T04:52:41.364Z,99645.63
2022-11-16T04:55:13.021Z,99647.53
2022-11-16T04:57:40.629Z,99646.88
2022-11-16T05:00:09.987Z,99654.63
2022-11-16T05:02:39.811Z,99653.81
2022-11-16T05:05:09.143Z,99661.66
2022-11-16T05:07:38.892Z,99658.09
2022-11-16T05:10:14.060Z,99655.50
2022-11-16T05:12:41.899Z,99663.13
2022-11-16T05:15:11.255Z,99669.19
2022-11-16T05:17:39.809Z,99676.19
2022-11-16T05:20:30.969Z,99683.31
2022-11-16T05:23:03.379Z,99671.41
2022-11-16T05:25:39.537Z,99677.44
2022-11-16T05:28:10.646Z,99678.28
2022-11-16T05:30:41.031Z,99672.13
2022-11-16T05:33:08.412Z,99674.00
2022-11-16T05:35:39.633Z,99668.88
2022-11-16T05:38:07.339Z,99666.47
2022-11-16T05:40:39.349Z,99676.19
2022-11-16T05:43:06.958Z,99673.78
2022-11-16T05:45:39.983Z,99673.16
2022-11-16T05:48:09.153Z,99670.88
2022-11-16T05:50:42.377Z,99671.19
2022-11-16T05:53:20.164Z,99672.31
2022-11-16T05:55:48.475Z,99670.88
2022-11-16T05:58:15.780Z,99651.31
2022-11-16T06:00:43.060Z,99653.31
2022-11-16T06:03:11.370Z,99658.75
2022-11-16T06:05:40.662Z,99665.22
2022-11-16T06:08:09.826Z,99666.34
2022-11-16T06:10:37.113Z,99677.13
2022-11-16T06:13:05.532Z,99678.28
2022-11-16T06:15:38.588Z,99674.28
2022-11-16T06:18:09.019Z,99683.28
2022-11-16T06:20:40.129Z,99679.28
2022-11-16T06:23:07.923Z,99684.72
2022-11-16T06:25:39.856Z,99689.41
2022-11-16T06:28:08.281Z,99693.88
2022-11-16T06:30:38.481Z,99697.66
2022-11-16T06:33:08.005Z,99690.94
2022-11-16T06:35:35.387Z,99696.34
2022-11-16T06:38:03.795Z,99702.69
2022-11-16T06:40:32.711Z,99711.59
2022-11-16T06:43:02.947Z,99706.56
2022-11-16T06:45:30.227Z,99714.50
2022-11-16T06:48:00.212Z,99714.69
2022-11-16T06:50:27.495Z,99716.66
2022-11-16T06:52:55.112Z,99721.13
2022-11-16T06:55:23.420Z,99724.78
2022-11-16T06:57:50.701Z,99718.81
2022-11-16T07:00:18.728Z,99728.63
2022-11-16T07:02:47.663Z,99732.25
2022-11-16T07:05:18.045Z,99738.50
2022-11-16T07:07:47.053Z,99736.81
2022-11-16T07:10:14.478Z,99737.94
2022-11-16T07:12:43.047Z,99738.84
2022-11-16T07:15:11.212Z,99738.84
2022-11-16T07:17:42.444Z,99751.06
2022-11-16T07:20:12.007Z,99745.13
2022-11-16T07:22:39.933Z,99754.78
2022-11-16T07:25:08.593Z,99750.53
2022-11-16T07:27:35.828Z,99752.28
2022-11-16T07:30:05.592Z,99742.78
2022-11-16T07:32:59.556Z,99755.84
2022-11-16T07:35:46.906Z,99760.22
2022-11-16T07:38:17.787Z,99758.47
2022-11-16T07:40:46.488Z,99773.16
2022-11-16T07:43:18.797Z,99775.78
2022-11-16T07:46:46.405Z,99778.38
2022-11-16T07:49:18.156Z,99775.78
2022-11-16T07:52:11.178Z,99779.25
2022-11-16T07:54:55.413Z,99781.84
2022-11-16T07:57:25.330Z,99783.59
2022-11-16T07:59:54.459Z,99789.69
2022-11-16T08:02:21.659Z,99783.69
2022-11-16T08:04:51.086Z,99794.13
2022-11-16T08:07:26.407Z,99795.00
2022-11-16T08:09:56.684Z,99796.75
2022-11-16T08:12:24.502Z,99798.44
2022-11-16T08:14:52.825Z,99794.03
2022-11-16T08:17:20.325Z,99795.72
2022-11-16T08:19:48.013Z,99800.03
2022-11-16T08:22:16.769Z,99805.88
2022-11-16T08:24:45.827Z,99801.41
2022-11-16T08:27:15.372Z,99808.31
2022-11-16T08:29:44.173Z,99811.50
2022-11-16T08:32:11.510Z,99811.41
2022-11-16T08:34:38.778Z,99808.59
2022-11-16T08:37:06.701Z,99805.91
2022-11-16T08:39:43.942Z,99808.22
2022-11-16T08:42:11.474Z,99807.22
2022-11-16T08:44:39.816Z,99813.06
2022-11-16T08:47:11.676Z,99813.84
2022-11-16T08:49:51.435Z,99802.34
2022-11-16T08:52:20.565Z,99804.03
2022-11-16T08:54:49.766Z,99814.28
2022-11-16T08:57:17.649Z,99819.31
2022-11-16T08:59:48.191Z,99816.59
2022-11-16T09:02:15.408Z,99825.19
2022-11-16T09:04:43.804Z,99829.38
2022-11-16T09:07:11.117Z,99834.41
2022-11-16T09:09:38.338Z,99827.22
2022-11-16T09:12:05.916Z,99825.25
2022-11-16T09:14:33.295Z,99832.91
2022-11-16T09:17:00.473Z,99830.09
2022-11-16T09:19:27.626Z,99827.38
2022-11-16T09:21:54.769Z,99841.09
2022-11-16T09:24:22.019Z,99830.53
2022-11-16T09:26:49.289Z,99829.50
2022-11-16T09:29:16.627Z,99831.94
2022-11-16T09:31:44.756Z,99844.59
2022-11-16T09:34:12.065Z,99828.72
2022-11-16T09:36:39.267Z,99828.53
2022-11-16T09:42:29.674Z,99821.22
2022-11-16T09:45:23.182Z,99823.66
2022-11-16T09:47:59.339Z,99818.31
2022-11-16T09:51:08.196Z,99827.50
2022-11-16T09:54:03.354Z,99831.50
2022-11-16T09:56:37.682Z,99837.38
2022-11-16T09:59:29.338Z,99830.09
2022-11-16T10:02:19.533Z,99835.63
2022-11-16T10:05:08.564Z,99829.81
2022-11-16T10:08:13.417Z,99838.22
2022-11-16T10:11:25.639Z,99841.44
2022-11-16T10:14:27.805Z,99838.34
2022-11-16T10:17:11.251Z,99838.31
2022-11-16T10:21:02.090Z,99841.19
2022-11-16T10:24:01.253Z,99845.09
2022-11-16T10:27:24.060Z,99833.19
2022-11-16T10:30:21.914Z,99832.94
2022-11-16T10:33:10.977Z,99845.22
2022-11-16T10:35:47.915Z,99838.06
2022-11-16T10:38:25.619Z,99841.59
2022-11-16T10:41:03.165Z,99837.59
2022-11-16T10:43:33.766Z,99838.56
2022-11-16T10:46:40.243Z,99841.94
2022-11-16T10:49:53.135Z,99835.97
2022-11-16T10:52:20.445Z,99840.72
2022-11-16T10:54:47.670Z,99830.28
2022-11-16T10:57:14.944Z,99823.94
2022-11-16T10:59:55.577Z,99827.16
2022-11-16T11:02:33.595Z,99822.59
2022-11-16T11:05:21.437Z,99817.28
2022-11-16T11:08:02.465Z,99825.25
2022-11-16T11:10:32.657Z,99810.59
2022-11-16T11:13:11.892Z,99824.53
2022-11-16T11:15:44.659Z,99824.22
2022-11-16T11:18:25.654Z,99819.72
2022-11-16T11:21:17.176Z,99814.22
2022-11-16T11:24:02.302Z,99824.03
2022-11-16T11:26:41.698Z,99820.03
2022-11-16T11:29:27.037Z,99817.25
2022-11-16T11:32:05.722Z,99824.75
2022-11-16T11:34:48.523Z,99811.25
2022-11-16T11:37:25.572Z,99817.69
2022-11-16T11:40:27.946Z,99805.88
2022-11-16T11:43:06.633Z,99802.56
2022-11-16T11:45:47.755Z,99801.38
2022-11-16T11:49:00.041Z,99802.69
2022-11-16T11:51:40.528Z,99802.09
2022-11-16T11:54:22.326Z,99789.09
2022-11-16T11:56:49.512Z,99797.81
2022-11-16T11:59:24.061Z,99800.69
2022-11-16T12:02:33.398Z,99789.81
2022-11-16T12:05:45.612Z,99798.56
2022-11-16T12:08:33.675Z,99797.25
2022-11-16T12:12:01.773Z,99796.41
2022-11-16T12:15:19.306Z,99786.13
2022-11-16T12:18:32.664Z,99778.50
2022-11-16T12:21:17.637Z,99778.16
2022-11-16T12:24:06.381Z,99764.78
2022-11-16T12:27:27.095Z,99768.34
2022-11-16T12:30:10.451Z,99771.00
2022-11-16T12:32:52.967Z,99749.00
2022-11-16T12:36:06.359Z,99748.00
2022-11-16T12:39:00.316Z,99745.91
2022-11-16T12:41:58.836Z,99744.91
2022-11-16T12:44:43.963Z,99742.22
2022-11-16T12:47:55.429Z,99737.94
2022-11-16T12:51:02.857Z,99727.34
2022-11-16T12:54:25.832Z,99734.19
2022-11-16T12:57:35.637Z,99727.81
2022-11-16T13:00:11.967Z,99725.63
2022-11-16T13:03:21.596Z,99721.69
2022-11-16T13:06:06.685Z,99715.19
2022-11-16T13:09:11.073Z,99717.53
2022-11-16T13:11:58.169Z,99719.72
2022-11-16T13:14:53.386Z,99718.50
2022-11-16T13:17:32.812Z,99718.72
2022-11-16T13:20:34.947Z,99709.47
2022-11-16T13:23:18.397Z,99713.41
2022-11-16T13:26:23.912Z,99713.75
2022-11-16T13:29:28.567Z,99723.78
2022-11-16T13:32:29.570Z,99708.41
2022-11-16T13:35:05.180Z,99710.50
2022-11-16T13:37:38.479Z,99706.59
2022-11-16T13:40:05.574Z,99708.34
2022-11-16T13:42:57.420Z,99703.53
2022-11-16T13:45:29.123Z,99710.75
2022-11-16T13:48:00.647Z,99698.13
2022-11-16T13:50:48.723Z,99706.75
2022-11-16T13:54:25.077Z,99707.50
2022-11-16T13:56:28.361Z,99698.69
2022-11-16T13:58:58.281Z,99701.00
2022-11-16T14:01:26.733Z,99701.69
2022-11-16T14:05:04.864Z,99700.53
2022-11-16T14:07:51.653Z,99699.28
2022-11-16T14:10:33.991Z,99699.03
2022-11-16T14:13:26.324Z,99693.38
2022-11-16T14:16:22.729Z,99691.06
2022-11-16T14:19:00.556Z,99698.16
2022-11-16T14:22:00.075Z,99686.41
2022-11-16T14:24:50.705Z,99691.06
2022-11-16T14:27:56.675Z,99682.38
2022-11-16T14:30:32.535Z,99686.44
2022-11-16T14:32:59.856Z,99678.56
2022-11-16T14:35:39.514Z,99677.22
2022-11-16T14:38:32.478Z,99666.97
2022-11-16T14:41:04.868Z,99665.25
2022-11-16T14:43:44.500Z,99659.06
2022-11-16T14:46:35.947Z,99659.44
2022-11-16T14:49:04.900Z,99658.44
2022-11-16T14:51:56.762Z,99641.31
2022-11-16T14:54:55.595Z,99645.25
2022-11-16T14:57:24.243Z,99646.25
2022-11-16T15:00:26.932Z,99659.59
2022-11-16T15:03:02.068Z,99650.91
2022-11-16T15:05:36.573Z,99643.75
2022-11-16T15:08:26.400Z,99636.63
2022-11-16T15:10:53.704Z,99621.84
2022-11-16T15:13:25.164Z,99620.22
2022-11-16T15:16:31.012Z,99618.69
2022-11-16T15:19:01.781Z,99624.78
2022-11-16T15:21:29.512Z,99616.06
2022-11-16T15:26:44.092Z,99605.34
2022-11-16T15:29:20.881Z,99609.53
2022-11-16T15:31:49.281Z,99615.50
2022-11-16T15:34:20.657Z,99609.03
2022-11-16T15:36:48.750Z,99587.59
2022-11-16T15:39:36.428Z,99580.19
2022-11-16T15:42:04.504Z,99582.44
2022-11-16T15:44:33.974Z,99594.59
2022-11-16T15:47:03.798Z,99603.75
2022-11-16T15:49:40.723Z,99595.41
2022-11-16T15:52:08.207Z,99592.03
2022-11-16T15:54:55.776Z,99595.63
2022-11-16T15:57:24.984Z,99584.41
2022-11-16T15:59:56.838Z,99582.88
2022-11-16T16:02:31.609Z,99576.19
2022-11-16T16:04:58.788Z,99582.50
2022-11-16T16:07:43.142Z,99575.81
2022-11-16T16:10:19.509Z,99566.84
2022-11-16T16:13:01.826Z,99560.06
2022-11-16T16:15:34.778Z,99556.34
2022-11-16T16:18:12.161Z,99555.00
2022-11-16T16:20:39.389Z,99553.34
2022-11-16T16:23:13.455Z,99558.94
2022-11-16T16:25:42.035Z,99545.34
2022-11-16T16:28:12.572Z,99546.75
2022-11-16T16:30:39.812Z,99536.81
2022-11-16T16:33:07.255Z,99539.78
2022-11-16T16:35:34.621Z,99529.53
2022-11-16T16:38:01.888Z,99541.03
2022-11-16T16:40:29.733Z,99539.59
2022-11-16T16:42:58.029Z,99530.09
2022-11-16T16:45:41.829Z,99528.63
2022-11-16T16:48:12.614Z,99528.03
2022-11-16T16:50:40.138Z,99532.75
2022-11-16T16:53:10.497Z,99534.03
2022-11-16T16:55:37.908Z,99528.16
2022-11-16T16:58:06.296Z,99525.78
2022-11-16T17:00:33.910Z,99520.66
2022-11-16T17:03:01.181Z,99509.59
2022-11-16T17:05:30.795Z,99502.66
2022-11-16T17:07:57.968Z,99511.47
2022-11-16T17:10:25.170Z,99503.53
2022-11-16T17:12:57.189Z,99494.00
2022-11-16T17:15:24.941Z,99497.88
2022-11-16T17:17:52.197Z,99489.19
2022-11-16T17:20:19.593Z,99494.53
2022-11-16T17:22:46.825Z,99491.00
2022-11-16T17:25:14.941Z,99492.66
2022-11-16T17:27:42.212Z,99491.38
2022-11-16T17:30:10.756Z,99488.97
2022-11-16T17:32:37.945Z,99489.91
2022-11-16T17:35:05.638Z,99483.97
2022-11-16T17:37:32.855Z,99489.91
2022-11-16T17:40:00.094Z,99480.31
2022-11-16T17:42:27.367Z,99480.44
2022-11-16T17:44:55.146Z,99477.06
2022-11-16T17:47:22.305Z,99467.34
2022-11-16T17:49:49.469Z,99462.81
2022-11-16T17:52:16.763Z,99461.78
2022-11-16T17:54:43.929Z,99453.81
2022-11-16T17:57:11.472Z,99450.56
2022-11-16T17:59:38.649Z,99459.97
2022-11-16T18:02:05.836Z,99458.31
2022-11-16T18:04:32.982Z,99462.50
2022-11-16T18:07:01.109Z,99458.53
2022-11-16T18:09:28.492Z,99463.97
2022-11-16T18:11:55.766Z,99453.41
2022-11-16T18:14:22.965Z,99459.09
2022-11-16T18:16:50.132Z,99460.88
2022-11-16T18:19:19.879Z,99463.28
2022-11-16T18:21:48.769Z,99464.44
2022-11-16T18:24:16.314Z,99467.38
2022-11-16T18:26:43.706Z,99468.44
2022-11-16T18:29:15.361Z,99460.81
2022-11-16T18:31:42.854Z,99455.69
2022-11-16T18:34:14.523Z,99455.06
2022-11-16T18:36:41.935Z,99455.19
2022-11-16T18:39:09.151Z,99452.66
2022-11-16T18:41:36.421Z,99453.31
2022-11-16T18:44:03.898Z,99457.13
2022-11-16T18:46:33.132Z,99464.69
2022-11-16T18:49:00.993Z,99464.00
2022-11-16T18:51:30.587Z,99459.38
2022-11-16T18:53:57.987Z,99453.31
2022-11-16T18:56:25.576Z,99443.66
2022-11-16T18:58:53.706Z,99442.75
2022-11-16T19:01:26.209Z,99446.66
2022-11-16T19:03:55.858Z,99440.72
2022-11-16T19:06:23.886Z,99432.78
2022-11-16T19:08:59.614Z,99419.69
2022-11-16T19:11:28.710Z,99415.91
2022-11-16T19:14:07.800Z,99410.78
2022-11-16T19:16:35.946Z,99402.22
2022-11-16T19:19:04.932Z,99395.22
2022-11-16T19:21:32.200Z,99399.00
2022-11-16T19:23:59.439Z,99388.09
2022-11-16T19:26:27.996Z,99378.66
2022-11-16T19:28:55.882Z,99376.28
2022-11-16T19:31:28.865Z,99368.78
2022-11-16T19:34:10.687Z,99370.56
2022-11-16T19:36:37.952Z,99360.94
2022-11-16T19:39:05.931Z,99365.22
2022-11-16T19:41:33.338Z,99350.34
2022-11-16T19:44:01.787Z,99342.63
2022-11-16T19:46:32.909Z,99334.44
2022-11-16T19:49:01.192Z,99343.97
2022-11-16T19:51:32.272Z,99334.44
2022-11-16T19:54:03.132Z,99316.25
2022-11-16T19:56:30.802Z,99311.13
2022-11-16T19:58:58.211Z,99320.31
2022-11-16T20:01:29.092Z,99306.75
2022-11-16T20:04:02.436Z,99296.41
2022-11-16T20:06:38.967Z,99296.53
2022-11-16T20:09:11.947Z,99283.22
2022-11-16T20:11:41.562Z,99274.41
2022-11-16T20:14:11.800Z,99269.69
2022-11-16T20:16:43.685Z,99272.75
2022-11-16T20:19:11.562Z,99265.97
2022-11-16T20:21:42.815Z,99264.19
2022-11-16T20:24:16.287Z,99252.06
2022-11-16T20:26:48.146Z,99246.00
2022-11-16T20:29:18.570Z,99252.09
2022-11-16T20:31:46.976Z,99246.75
2022-11-16T20:34:17.463Z,99232.09
2022-11-16T20:36:49.690Z,99227.72
2022-11-16T20:39:21.353Z,99227.72
2022-11-16T20:41:49.358Z,99223.69
2022-11-16T20:44:21.078Z,99239.25
2022-11-16T20:46:50.626Z,99231.41
2022-11-16T20:49:17.969Z,99224.19
2022-11-16T20:51:47.572Z,99224.75
2022-11-16T20:54:15.136Z,99223.31
2022-11-16T20:56:42.498Z,99214.78
2022-11-16T20:59:09.684Z,99211.44
2022-11-16T21:01:36.969Z,99208.25
2022-11-16T21:04:05.720Z,99207.53
2022-11-16T21:06:33.625Z,99216.34
2022-11-16T21:09:01.799Z,99195.75
2022-11-16T21:11:52.871Z,99193.72
2022-11-16T21:14:20.649Z,99191.47
2022-11-16T21:16:47.983Z,99169.84
2022-11-16T21:19:17.753Z,99165.19
2022-11-16T21:21:44.931Z,99157.34
2022-11-16T21:24:12.382Z,99148.19
2022-11-16T21:26:39.654Z,99142.03
2022-11-16T21:29:06.969Z,99152.25
2022-11-16T21:31:36.667Z,99132.38
2022-11-16T21:34:05.816Z,99127.63
2022-11-16T21:36:33.992Z,99138.56
2022-11-16T21:39:01.655Z,99122.97
2022-11-16T21:41:29.401Z,99132.50
2022-11-16T21:43:56.984Z,99118.59
2022-11-16T21:46:26.842Z,99122.38
2022-11-16T21:48:56.674Z,99113.34
2022-11-16T21:51:27.247Z,99106.56
2022-11-16T21:53:55.598Z,99095.50
2022-11-16T21:56:26.201Z,99104.19
2022-11-16T21:58:54.596Z,99088.34
2022-11-16T22:01:43.685Z,99078.97
2022-11-16T22:04:29.721Z,99078.84
2022-11-16T22:07:15.701Z,99081.72
2022-11-16T22:09:42.944Z,99070.34
2022-11-16T22:12:10.162Z,99061.41
2022-11-16T22:14:37.377Z,99058.94
2022-11-16T22:17:04.566Z,99052.03
2022-11-16T22:19:31.801Z,99038.38
2022-11-16T22:21:59.429Z,99032.53
2022-11-16T22:24:26.680Z,99020.69
2022-11-16T22:26:53.914Z,99016.97
2022-11-16T22:29:21.129Z,98993.94
2022-11-16T22:31:48.318Z,98986.31
2022-11-16T22:34:15.494Z,98983.94
2022-11-16T22:36:42.692Z,98965.78
2022-11-16T22:39:10.028Z,98952.13
2022-11-16T22:41:37.246Z,98955.22
2022-11-16T22:44:04.760Z,98925.78
2022-11-16T22:46:32.018Z,98939.91
2022-11-16T22:48:59.674Z,98929.94
2022-11-16T22:51:30.069Z,98920.91
2022-11-16T22:54:11.329Z,98916.16
2022-11-16T22:56:39.250Z,98908.44
2022-11-16T22:59:06.700Z,98891.13
2022-11-16T23:01:36.238Z,98892.06
2022-11-16T23:04:03.516Z,98875.91
2022-11-16T23:06:31.107Z,98879.22
2022-11-16T23:08:58.541Z,98868.53
2022-11-16T23:11:45.984Z,98857.16
2022-11-16T23:14:36.110Z,98859.63
2022-11-16T23:17:04.536Z,98846.94
2022-11-16T23:19:50.525Z,98831.13
2022-11-16T23:22:40.225Z,98820.81
2022-11-16T23:25:33.681Z,98815.09
2022-11-16T23:28:14.331Z,98806.19
2022-11-16T23:30:41.774Z,98793.00
2022-11-16T23:33:10.624Z,98756.63
2022-11-16T23:35:38.074Z,98770.06
2022-11-16T23:38:07.863Z,98782.88
2022-11-16T23:40:40.241Z,98765.31
2022-11-16T23:43:29.146Z,98762.84
2022-11-16T23:45:56.373Z,98756.38
2022-11-16T23:48:23.548Z,98751.47
2022-11-16T23:50:50.959Z,98733.72
2022-11-16T23:53:18.161Z,98722.09
2022-11-16T23:55:45.345Z,98727.19
2022-11-16T23:58:15.165Z,98704.00
